Meadow Lake, Alaska
Current Conditions -  °F | °C
As of 6:36 AM on Sunday 28 Dec 2014 (Local Time) from PAWS Reporting Station
Clear Clear  
Wind Chill: 18°   Ceiling: Unl
Heat Index: 18°   Visibility: 10mi
Dew Point: 10°   Wind: 0mph
Humidity: 73%   Direction: NA
Pressure: 30.42"   Gusts: NA
Location:  61.5841°N, 149.443°W
Report Text: PAWS 281536Z AUTO 00000KT 10SM CLR M08/M12 A3042 RMK AO1
Loading
Personal Weather Stations






























Interactive Weather Map New forecast layout! Learn more

10-Day Weather Forecast

Advertisements
Track Severe Weather on mobile